createdAt,value
2024-03-12T00:01:49.583Z,0.28
2024-03-12T00:04:18.016Z,0.28
2024-03-12T00:06:46.207Z,0.26
2024-03-12T00:09:13.948Z,0.26
2024-03-12T00:11:43.765Z,0.26
2024-03-12T00:14:11.406Z,0.25
2024-03-12T00:16:41.900Z,0.25
2024-03-12T00:19:11.024Z,0.25
2024-03-12T00:21:38.693Z,0.24
2024-03-12T00:24:06.695Z,0.25
2024-03-12T00:26:34.422Z,0.25
2024-03-12T00:29:02.189Z,0.25
2024-03-12T00:31:29.596Z,0.26
2024-03-12T00:34:01.739Z,0.28
2024-03-12T00:36:30.184Z,0.29
2024-03-12T00:38:58.985Z,0.28
2024-03-12T00:41:26.520Z,0.27
2024-03-12T00:43:55.404Z,0.27
2024-03-12T00:46:23.735Z,0.26
2024-03-12T00:48:51.473Z,0.26
2024-03-12T00:51:19.732Z,0.24
2024-03-12T00:53:47.405Z,0.22
2024-03-12T00:56:16.683Z,0.21
2024-03-12T00:58:44.393Z,0.20
2024-03-12T01:01:16.618Z,0.19
2024-03-12T01:03:44.494Z,0.18
2024-03-12T01:06:13.194Z,0.18
2024-03-12T01:08:44.093Z,0.16
2024-03-12T01:11:13.658Z,0.15
2024-03-12T01:13:41.623Z,0.15
2024-03-12T01:16:09.189Z,0.16
2024-03-12T01:18:37.221Z,0.17
2024-03-12T01:21:04.846Z,0.18
2024-03-12T01:23:32.455Z,0.19
2024-03-12T01:25:59.978Z,0.20
2024-03-12T01:28:27.381Z,0.22
2024-03-12T01:30:54.964Z,0.22
2024-03-12T01:33:22.695Z,0.21
2024-03-12T01:35:50.498Z,0.18
2024-03-12T01:38:17.908Z,0.16
2024-03-12T01:40:45.525Z,0.15
2024-03-12T01:43:14.276Z,0.15
2024-03-12T01:45:43.810Z,0.15
2024-03-12T01:48:12.852Z,0.16
2024-03-12T01:50:41.384Z,0.15
2024-03-12T01:53:09.884Z,0.15
2024-03-12T01:55:45.192Z,0.17
2024-03-12T01:58:19.006Z,0.17
2024-03-12T02:00:47.593Z,0.15
2024-03-12T02:03:17.279Z,0.13
2024-03-12T02:05:47.858Z,0.12
2024-03-12T02:08:15.438Z,0.10
2024-03-12T02:10:43.082Z,0.09
2024-03-12T02:13:10.663Z,0.09
2024-03-12T02:15:38.516Z,0.09
2024-03-12T02:18:09.963Z,0.09
2024-03-12T02:20:39.670Z,0.08
2024-03-12T02:23:07.365Z,0.06
2024-03-12T02:25:34.866Z,0.06
2024-03-12T02:28:04.404Z,0.08
2024-03-12T02:30:32.358Z,0.09
2024-03-12T02:33:00.037Z,0.08
2024-03-12T02:35:27.825Z,0.09
2024-03-12T02:37:55.316Z,0.10
2024-03-12T02:40:23.805Z,0.11
2024-03-12T02:42:51.596Z,0.09
2024-03-12T02:45:22.387Z,0.08
2024-03-12T02:47:50.655Z,0.08
2024-03-12T02:50:19.648Z,0.09
2024-03-12T02:52:47.377Z,0.10
2024-03-12T02:55:15.541Z,0.09
2024-03-12T02:57:43.451Z,0.09
2024-03-12T03:00:16.108Z,0.07
2024-03-12T03:02:45.188Z,0.07
2024-03-12T03:05:14.580Z,0.08
2024-03-12T03:07:42.647Z,0.11
2024-03-12T03:10:14.466Z,0.12
2024-03-12T03:12:43.350Z,0.14
2024-03-12T03:15:13.831Z,0.14
2024-03-12T03:17:47.068Z,0.15
2024-03-12T03:20:17.774Z,0.16
2024-03-12T03:22:48.584Z,0.18
2024-03-12T03:25:16.656Z,0.19
2024-03-12T03:27:44.573Z,0.21
2024-03-12T03:30:14.573Z,0.21
2024-03-12T03:32:42.254Z,0.20
2024-03-12T03:35:10.009Z,0.18
2024-03-12T03:37:37.635Z,0.18
2024-03-12T03:40:06.261Z,0.18
2024-03-12T03:42:33.907Z,0.20
2024-03-12T03:45:01.541Z,0.21
2024-03-12T03:47:35.407Z,0.23
2024-03-12T03:50:04.345Z,0.25
2024-03-12T03:52:31.962Z,0.25
2024-03-12T03:54:59.404Z,0.25
2024-03-12T03:57:27.376Z,0.27
2024-03-12T03:59:54.990Z,0.28
2024-03-12T04:02:22.726Z,0.30
2024-03-12T04:04:50.875Z,0.30
2024-03-12T04:07:21.140Z,0.30
2024-03-12T04:09:48.832Z,0.31
2024-03-12T04:12:16.531Z,0.33
2024-03-12T04:14:44.017Z,0.33
2024-03-12T04:17:11.467Z,0.31
2024-03-12T04:19:39.003Z,0.30
2024-03-12T04:22:07.399Z,0.31
2024-03-12T04:24:35.330Z,0.30
2024-03-12T04:27:02.958Z,0.28
2024-03-12T04:29:30.464Z,0.27
2024-03-12T04:31:57.960Z,0.25
2024-03-12T04:34:25.642Z,0.24
2024-03-12T04:36:53.114Z,0.25
2024-03-12T04:39:33.207Z,0.25
2024-03-12T04:42:03.555Z,0.26
2024-03-12T04:44:31.144Z,0.27
2024-03-12T04:46:58.792Z,0.28
2024-03-12T04:49:27.086Z,0.29
2024-03-12T04:51:54.818Z,0.31
2024-03-12T04:54:22.470Z,0.32
2024-03-12T04:56:52.931Z,0.35
2024-03-12T04:59:20.582Z,0.38
2024-03-12T05:01:50.414Z,0.39
2024-03-12T05:04:22.604Z,0.41
2024-03-12T05:06:51.802Z,0.43
2024-03-12T05:09:19.744Z,0.44
2024-03-12T05:11:47.367Z,0.48
2024-03-12T05:14:15.020Z,0.48
2024-03-12T05:16:43.150Z,0.45
2024-03-12T05:19:12.945Z,0.45
2024-03-12T05:21:40.705Z,0.47
2024-03-12T05:24:08.391Z,0.51
2024-03-12T05:26:45.248Z,0.54
2024-03-12T05:29:13.463Z,0.58
2024-03-12T05:31:41.613Z,0.59
2024-03-12T05:34:20.247Z,0.61
2024-03-12T05:36:53.321Z,0.64
2024-03-12T05:39:50.435Z,0.68
2024-03-12T05:42:37.466Z,0.76
2024-03-12T05:45:24.114Z,0.83
2024-03-12T05:48:10.595Z,0.89
2024-03-12T05:50:42.406Z,0.92
2024-03-12T05:53:10.086Z,0.95
2024-03-12T05:55:37.628Z,0.99
2024-03-12T05:58:06.205Z,1.03
2024-03-12T06:00:34.011Z,1.07
2024-03-12T06:03:01.548Z,1.12
2024-03-12T06:05:29.112Z,1.18
2024-03-12T06:07:56.676Z,1.23
2024-03-12T06:10:24.266Z,1.28
2024-03-12T06:12:52.244Z,1.32
2024-03-12T06:15:20.466Z,1.35
2024-03-12T06:17:47.932Z,1.37
2024-03-12T06:20:15.630Z,1.37
2024-03-12T06:22:46.045Z,1.40
2024-03-12T06:25:14.011Z,1.41
2024-03-12T06:27:42.925Z,1.41
2024-03-12T06:30:12.429Z,1.41
2024-03-12T06:32:40.034Z,1.43
2024-03-12T06:35:09.135Z,1.49
2024-03-12T06:37:36.636Z,1.54
2024-03-12T06:40:06.059Z,1.59
2024-03-12T06:42:34.040Z,1.64
2024-03-12T06:45:03.550Z,1.68
2024-03-12T06:47:38.227Z,1.69
2024-03-12T06:50:10.084Z,1.70
2024-03-12T06:52:37.636Z,1.73
2024-03-12T06:55:06.391Z,1.75
2024-03-12T06:57:35.639Z,1.79
2024-03-12T07:00:10.890Z,1.81
2024-03-12T07:02:39.719Z,1.80
2024-03-12T07:05:11.290Z,1.83
2024-03-12T07:07:45.316Z,1.84
2024-03-12T07:10:13.109Z,1.86
2024-03-12T07:12:40.811Z,1.85
2024-03-12T07:15:08.915Z,1.82
2024-03-12T07:17:36.453Z,1.79
2024-03-12T07:20:11.504Z,1.79
2024-03-12T07:22:46.398Z,1.80
2024-03-12T07:25:14.887Z,1.82
2024-03-12T07:27:42.914Z,1.86
2024-03-12T07:30:11.822Z,1.92
2024-03-12T07:32:39.446Z,1.98
2024-03-12T07:35:07.821Z,2.04
2024-03-12T07:37:40.677Z,2.07
2024-03-12T07:40:13.272Z,2.11
2024-03-12T07:42:42.965Z,2.14
2024-03-12T07:45:11.698Z,2.18
2024-03-12T07:47:42.238Z,2.18
2024-03-12T07:50:12.501Z,2.18
2024-03-12T07:52:40.546Z,2.18
2024-03-12T07:55:11.271Z,2.16
2024-03-12T07:57:39.261Z,2.16
2024-03-12T08:00:16.387Z,2.18
2024-03-12T08:02:44.317Z,2.22
2024-03-12T08:05:12.289Z,2.26
2024-03-12T08:08:52.887Z,2.33
2024-03-12T08:11:21.044Z,2.35
2024-03-12T08:13:49.574Z,2.38
2024-03-12T08:16:17.208Z,2.40
2024-03-12T08:18:44.855Z,2.39
2024-03-12T08:21:13.099Z,2.41
2024-03-12T08:23:40.741Z,2.42
2024-03-12T08:27:20.677Z,2.49
2024-03-12T08:29:48.342Z,2.61
2024-03-12T08:32:15.992Z,2.70
2024-03-12T08:34:43.950Z,2.73
2024-03-12T08:37:13.473Z,2.73
2024-03-12T08:39:41.887Z,2.73
2024-03-12T08:42:11.291Z,2.73
2024-03-12T08:44:39.125Z,2.76
2024-03-12T08:47:07.097Z,2.81
2024-03-12T08:49:34.879Z,2.88
2024-03-12T08:52:04.886Z,2.93
2024-03-12T08:54:32.939Z,2.91
2024-03-12T08:57:02.302Z,2.89
2024-03-12T08:59:30.728Z,2.86
2024-03-12T09:02:02.169Z,2.79
2024-03-12T09:04:31.747Z,2.70
2024-03-12T09:07:00.323Z,2.65
2024-03-12T09:09:28.378Z,2.66
2024-03-12T09:11:57.395Z,2.68
2024-03-12T09:14:25.966Z,2.72
2024-03-12T09:16:53.637Z,2.73
2024-03-12T09:19:26.159Z,2.74
2024-03-12T09:21:54.555Z,2.78
2024-03-12T09:24:24.099Z,2.81
2024-03-12T09:26:53.193Z,2.86
2024-03-12T09:29:21.980Z,2.93
2024-03-12T09:31:49.414Z,2.97
2024-03-12T09:34:18.159Z,3.03
2024-03-12T09:36:46.156Z,3.08
2024-03-12T09:39:13.805Z,3.08
2024-03-12T09:41:43.596Z,3.10
2024-03-12T09:44:12.527Z,3.14
2024-03-12T09:46:40.779Z,3.18
2024-03-12T09:49:09.224Z,3.21
2024-03-12T09:51:37.956Z,3.22
2024-03-12T09:54:05.595Z,3.23
2024-03-12T09:56:35.096Z,3.24
2024-03-12T09:59:02.612Z,3.26
2024-03-12T10:01:30.231Z,3.28
2024-03-12T10:03:58.519Z,3.23
2024-03-12T10:06:27.111Z,3.17
2024-03-12T10:09:01.293Z,3.13
2024-03-12T10:11:28.886Z,3.11
2024-03-12T10:14:07.338Z,3.10
2024-03-12T10:16:35.921Z,3.07
2024-03-12T10:19:16.345Z,3.01
2024-03-12T10:21:46.453Z,2.94
2024-03-12T10:24:15.507Z,2.92
2024-03-12T10:26:43.622Z,2.87
2024-03-12T10:29:19.533Z,2.80
2024-03-12T10:31:48.085Z,2.73
2024-03-12T10:34:21.573Z,2.68
2024-03-12T10:36:51.463Z,2.61
2024-03-12T10:39:30.123Z,2.62
2024-03-12T10:42:00.663Z,2.68
2024-03-12T10:44:30.155Z,2.62
2024-03-12T10:47:00.650Z,2.50
2024-03-12T10:49:29.266Z,2.41
2024-03-12T10:51:56.857Z,2.32
2024-03-12T10:54:25.325Z,2.20
2024-03-12T10:56:53.026Z,2.09
2024-03-12T10:59:20.553Z,1.99
2024-03-12T11:01:49.607Z,1.96
2024-03-12T11:04:17.407Z,1.97
2024-03-12T11:06:45.142Z,1.91
2024-03-12T11:09:13.426Z,1.83
2024-03-12T11:11:41.594Z,1.81
2024-03-12T11:14:09.283Z,1.79
2024-03-12T11:16:37.856Z,1.79
2024-03-12T11:19:24.731Z,1.84
2024-03-12T11:21:53.335Z,1.92
2024-03-12T11:24:32.022Z,1.92
2024-03-12T11:27:05.084Z,1.85
2024-03-12T11:30:05.563Z,1.75
2024-03-12T11:32:45.705Z,1.60
2024-03-12T11:35:21.417Z,1.56
2024-03-12T11:38:03.901Z,1.58
2024-03-12T11:40:41.074Z,1.54
2024-03-12T11:43:18.180Z,1.43
2024-03-12T11:45:48.843Z,1.30
2024-03-12T11:48:22.266Z,1.20
2024-03-12T11:50:56.085Z,1.17
2024-03-12T11:53:24.098Z,1.21
2024-03-12T11:55:59.403Z,1.19
2024-03-12T11:58:36.039Z,1.11
2024-03-12T12:01:04.064Z,1.02
2024-03-12T12:03:31.931Z,0.93
2024-03-12T12:06:00.312Z,0.94
2024-03-12T12:08:30.328Z,0.95
2024-03-12T12:11:04.036Z,0.86
2024-03-12T12:13:32.008Z,0.79
2024-03-12T12:16:02.457Z,0.71
2024-03-12T12:18:31.222Z,0.71
2024-03-12T12:21:01.491Z,0.76
2024-03-12T12:23:29.323Z,0.76
2024-03-12T12:25:57.859Z,0.71
2024-03-12T12:28:26.336Z,0.66
2024-03-12T12:30:58.339Z,0.68
2024-03-12T12:33:26.598Z,0.73
2024-03-12T12:35:58.930Z,0.74
2024-03-12T12:38:27.228Z,0.70
2024-03-12T12:40:55.116Z,0.64
2024-03-12T12:43:23.284Z,0.66
2024-03-12T12:45:51.105Z,0.70
2024-03-12T12:48:19.777Z,0.67
2024-03-12T12:50:55.164Z,0.62
2024-03-12T12:53:23.699Z,0.59
2024-03-12T12:55:58.619Z,0.65
2024-03-12T12:58:34.668Z,0.69
2024-03-12T13:01:03.603Z,0.64
2024-03-12T13:03:36.566Z,0.54
2024-03-12T13:06:24.002Z,0.50
2024-03-12T13:08:52.783Z,0.57
2024-03-12T13:11:22.908Z,0.62
2024-03-12T13:13:52.404Z,0.58
2024-03-12T13:16:22.949Z,0.51
2024-03-12T13:18:51.884Z,0.47
2024-03-12T13:21:22.740Z,0.52
2024-03-12T13:23:51.287Z,0.59
2024-03-12T13:26:20.116Z,0.58
2024-03-12T13:28:49.714Z,0.54
2024-03-12T13:31:17.559Z,0.54
2024-03-12T13:33:45.989Z,0.60
2024-03-12T13:36:14.058Z,0.66
2024-03-12T13:38:41.883Z,0.62
2024-03-12T13:41:10.719Z,0.56
2024-03-12T13:43:39.047Z,0.56
2024-03-12T13:46:06.896Z,0.62
2024-03-12T13:48:38.497Z,0.64
2024-03-12T13:51:08.888Z,0.60
2024-03-12T13:53:36.785Z,0.55
2024-03-12T13:56:07.982Z,0.55
2024-03-12T13:58:35.621Z,0.61
2024-03-12T14:01:03.485Z,0.63
2024-03-12T14:03:32.513Z,0.59
2024-03-12T14:06:05.094Z,0.50
2024-03-12T14:08:32.691Z,0.45
2024-03-12T14:11:00.367Z,0.48
2024-03-12T14:13:28.455Z,0.51
2024-03-12T14:15:57.205Z,0.47
2024-03-12T14:18:25.061Z,0.37
2024-03-12T14:20:52.679Z,0.35
2024-03-12T14:23:21.305Z,0.41
2024-03-12T14:25:50.432Z,0.45
2024-03-12T14:28:18.214Z,0.41
2024-03-12T14:30:46.292Z,0.35
2024-03-12T14:33:14.144Z,0.33
2024-03-12T14:35:41.986Z,0.38
2024-03-12T14:38:09.754Z,0.41
2024-03-12T14:40:37.465Z,0.37
2024-03-12T14:43:06.024Z,0.29
2024-03-12T14:45:34.084Z,0.30
2024-03-12T14:48:03.671Z,0.39
2024-03-12T14:50:31.257Z,0.44
2024-03-12T14:52:58.991Z,0.41
2024-03-12T14:55:26.639Z,0.37
2024-03-12T14:57:54.439Z,0.41
2024-03-12T15:00:23.313Z,0.47
2024-03-12T15:02:50.903Z,0.46
2024-03-12T15:05:21.897Z,0.43
2024-03-12T15:07:49.906Z,0.48
2024-03-12T15:10:18.150Z,0.51
2024-03-12T15:12:45.977Z,0.47
2024-03-12T15:15:15.634Z,0.46
2024-03-12T15:17:46.432Z,0.54
2024-03-12T15:20:17.241Z,0.59
2024-03-12T15:22:46.728Z,0.56
2024-03-12T15:25:16.618Z,0.51
2024-03-12T15:27:44.263Z,0.54
2024-03-12T15:30:13.250Z,0.59
2024-03-12T15:32:42.850Z,0.57
2024-03-12T15:35:12.289Z,0.53
2024-03-12T15:37:40.050Z,0.57
2024-03-12T15:40:10.288Z,0.64
2024-03-12T15:42:41.018Z,0.61
2024-03-12T15:45:12.808Z,0.52
2024-03-12T15:47:40.914Z,0.50
2024-03-12T15:50:09.055Z,0.54
2024-03-12T15:52:37.238Z,0.57
2024-03-12T15:55:05.726Z,0.53
2024-03-12T15:57:35.208Z,0.51
2024-03-12T16:00:05.868Z,0.57
2024-03-12T16:02:38.384Z,0.62
2024-03-12T16:05:06.815Z,0.59
2024-03-12T16:07:38.309Z,0.57
2024-03-12T16:10:09.763Z,0.62
2024-03-12T16:12:40.518Z,0.67
2024-03-12T16:15:10.893Z,0.64
2024-03-12T16:17:38.672Z,0.59
2024-03-12T16:20:14.459Z,0.61
2024-03-12T16:22:43.175Z,0.70
2024-03-12T16:25:11.569Z,0.77
2024-03-12T16:27:41.048Z,0.71
2024-03-12T16:30:10.976Z,0.62
2024-03-12T16:32:42.808Z,0.61
2024-03-12T16:35:10.588Z,0.65
2024-03-12T16:37:39.946Z,0.67
2024-03-12T16:40:08.902Z,0.64
2024-03-12T16:42:37.068Z,0.61
2024-03-12T16:45:06.806Z,0.67
2024-03-12T16:47:34.964Z,0.72
2024-03-12T16:50:09.326Z,0.69
2024-03-12T16:52:37.895Z,0.61
2024-03-12T16:55:06.443Z,0.59
2024-03-12T16:57:35.292Z,0.66
2024-03-12T17:00:05.208Z,0.63
2024-03-12T17:02:45.234Z,0.61
2024-03-12T17:05:14.695Z,0.68
2024-03-12T17:07:43.118Z,0.67
2024-03-12T17:10:12.772Z,0.64
2024-03-12T17:12:41.551Z,0.69
2024-03-12T17:15:12.999Z,0.75
2024-03-12T17:17:40.673Z,0.72
2024-03-12T17:20:12.279Z,0.64
2024-03-12T17:22:42.653Z,0.67
2024-03-12T17:25:11.921Z,0.72
2024-03-12T17:27:42.513Z,0.71
2024-03-12T17:30:11.535Z,0.66
2024-03-12T17:32:40.773Z,0.67
2024-03-12T17:35:16.234Z,0.76
2024-03-12T17:37:47.095Z,0.80
2024-03-12T17:40:15.539Z,0.76
2024-03-12T17:42:47.004Z,0.72
2024-03-12T17:45:15.761Z,0.76
2024-03-12T17:47:50.690Z,0.82
2024-03-12T17:50:19.213Z,0.84
2024-03-12T17:52:59.755Z,0.80
2024-03-12T17:55:29.424Z,0.73
2024-03-12T17:57:57.426Z,0.72
2024-03-12T18:00:25.651Z,0.80
2024-03-12T18:02:56.243Z,0.85
2024-03-12T18:05:24.254Z,0.86
2024-03-12T18:07:55.064Z,0.93
2024-03-12T18:10:26.365Z,0.93
2024-03-12T18:12:54.348Z,0.89
2024-03-12T18:15:24.887Z,0.88
2024-03-12T18:17:53.581Z,0.96
2024-03-12T18:20:25.582Z,1.04
2024-03-12T18:22:54.373Z,1.05
2024-03-12T18:25:22.413Z,1.07
2024-03-12T18:27:54.847Z,1.13
2024-03-12T18:30:22.935Z,1.09
2024-03-12T18:32:50.805Z,1.07
2024-03-12T18:35:20.779Z,1.10
2024-03-12T18:37:48.577Z,1.10
2024-03-12T18:40:20.034Z,1.06
2024-03-12T18:42:49.527Z,1.09
2024-03-12T18:45:19.831Z,1.07
2024-03-12T18:47:56.957Z,1.09
2024-03-12T18:50:29.313Z,1.14
2024-03-12T18:52:57.192Z,1.10
2024-03-12T18:55:28.132Z,1.07
2024-03-12T18:57:58.052Z,1.12
2024-03-12T19:00:27.192Z,1.13
2024-03-12T19:02:55.196Z,1.12
2024-03-12T19:05:23.488Z,1.13
2024-03-12T19:07:52.417Z,1.17
2024-03-12T19:10:21.089Z,1.16
2024-03-12T19:12:50.756Z,1.15
2024-03-12T19:15:26.534Z,1.19
2024-03-12T19:17:56.044Z,1.17
2024-03-12T19:20:26.433Z,1.14
2024-03-12T19:22:57.703Z,1.18
2024-03-12T19:25:27.391Z,1.18
2024-03-12T19:27:56.431Z,1.17
2024-03-12T19:30:26.187Z,1.16
2024-03-12T19:32:54.581Z,1.21
2024-03-12T19:35:23.206Z,1.24
2024-03-12T19:37:54.472Z,1.20
2024-03-12T19:40:23.016Z,1.20
2024-03-12T19:42:53.227Z,1.27
2024-03-12T19:45:32.519Z,1.29
2024-03-12T19:48:03.358Z,1.32
2024-03-12T19:50:31.824Z,1.37
2024-03-12T19:52:59.646Z,1.40
2024-03-12T19:55:31.501Z,1.41
2024-03-12T19:58:03.350Z,1.47
2024-03-12T20:00:35.799Z,1.50
2024-03-12T20:03:07.586Z,1.50
2024-03-12T20:05:39.467Z,1.53
2024-03-12T20:08:10.445Z,1.63
2024-03-12T20:10:40.222Z,1.64
2024-03-12T20:13:08.175Z,1.66
2024-03-12T20:15:38.541Z,1.74
2024-03-12T20:18:07.538Z,1.78
2024-03-12T20:20:35.565Z,1.77
2024-03-12T20:23:04.911Z,1.84
2024-03-12T20:26:46.877Z,1.85
2024-03-12T20:29:14.485Z,1.78
2024-03-12T20:31:42.228Z,1.76
2024-03-12T20:34:09.992Z,1.84
2024-03-12T20:36:37.955Z,1.89
2024-03-12T20:39:16.483Z,1.87
2024-03-12T20:41:44.118Z,1.87
2024-03-12T20:44:11.983Z,1.81
2024-03-12T20:46:41.259Z,1.65
2024-03-12T20:49:10.837Z,1.50
2024-03-12T20:51:38.637Z,1.50
2024-03-12T20:54:09.537Z,1.54
2024-03-12T20:56:37.299Z,1.56
2024-03-12T20:59:06.276Z,1.48
2024-03-12T21:01:33.861Z,1.34
2024-03-12T21:04:03.511Z,1.31
2024-03-12T21:06:32.540Z,1.29
2024-03-12T21:09:11.544Z,1.17
2024-03-12T21:11:42.688Z,1.02
2024-03-12T21:14:10.189Z,1.01
2024-03-12T21:16:37.761Z,1.05
2024-03-12T21:19:05.424Z,1.08
2024-03-12T21:21:33.642Z,1.07
2024-03-12T21:24:01.185Z,1.08
2024-03-12T21:26:28.789Z,1.10
2024-03-12T21:28:56.777Z,1.10
2024-03-12T21:31:24.321Z,1.13
2024-03-12T21:33:51.824Z,1.10
2024-03-12T21:36:19.398Z,1.11
2024-03-12T21:38:49.480Z,1.14
2024-03-12T21:41:17.181Z,1.16
2024-03-12T21:43:45.906Z,1.23
2024-03-12T21:46:13.440Z,1.26
2024-03-12T21:48:41.213Z,1.32
2024-03-12T21:51:10.184Z,1.39
2024-03-12T21:53:37.688Z,1.40
2024-03-12T21:56:08.920Z,1.40
2024-03-12T21:58:36.336Z,1.50
2024-03-12T22:01:04.381Z,1.59
2024-03-12T22:03:32.580Z,1.61
2024-03-12T22:06:00.342Z,1.64
2024-03-12T22:08:27.891Z,1.70
2024-03-12T22:10:58.040Z,1.71
2024-03-12T22:13:31.569Z,1.73
2024-03-12T22:16:06.790Z,1.70
2024-03-12T22:18:35.717Z,1.65
2024-03-12T22:21:03.648Z,1.67
2024-03-12T22:23:34.489Z,1.61
2024-03-12T22:26:01.913Z,1.55
2024-03-12T22:28:29.380Z,1.57
2024-03-12T22:30:56.947Z,1.56
2024-03-12T22:33:26.126Z,1.50
2024-03-12T22:35:53.865Z,1.39
2024-03-12T22:38:21.713Z,1.36
2024-03-12T22:40:52.171Z,1.40
2024-03-12T22:43:20.358Z,1.43
2024-03-12T22:45:49.535Z,1.39
2024-03-12T22:48:18.551Z,1.31
2024-03-12T22:50:46.165Z,1.32
2024-03-12T22:53:14.995Z,1.38
2024-03-12T22:55:42.743Z,1.39
2024-03-12T22:58:11.838Z,1.31
2024-03-12T23:00:39.651Z,1.24
2024-03-12T23:03:07.732Z,1.19
2024-03-12T23:05:35.682Z,1.07
2024-03-12T23:08:07.293Z,0.97
2024-03-12T23:10:40.936Z,0.97
2024-03-12T23:13:11.370Z,0.98
2024-03-12T23:15:40.168Z,0.91
2024-03-12T23:18:11.970Z,0.89
2024-03-12T23:20:46.189Z,0.91
2024-03-12T23:23:14.863Z,0.89
2024-03-12T23:25:42.876Z,0.89
2024-03-12T23:28:12.007Z,0.93
2024-03-12T23:30:40.161Z,0.93
2024-03-12T23:33:11.559Z,0.92
2024-03-12T23:35:39.047Z,0.96
2024-03-12T23:38:06.902Z,1.01
2024-03-12T23:40:34.566Z,0.97
2024-03-12T23:43:02.447Z,0.96
2024-03-12T23:45:32.149Z,0.98
2024-03-12T23:47:59.774Z,1.01
2024-03-12T23:50:27.365Z,0.96
2024-03-12T23:52:55.876Z,0.92
2024-03-12T23:55:23.850Z,0.96
2024-03-12T23:57:54.691Z,1.00
